Weather at La Ronge Airport

Public forecast

Using degrees Celsius for public forecast. Weather courtesy of forecast.io.

Current aviation weather report (METAR) for La Ronge Airport

Retrieved 2021/04/12 12:00 UTC (46 minutes ago):

CYVC 121200Z 36008KT 15SM SCT180 BKN250 M07/M12 A3046 RMK AC3CI3 SLP340

Aviation forecast (TAF) for La Ronge Airport

Retrieved 2021/04/12 13:42 UTC (0 seconds ago):

TAF CYVC 121238Z 1213/1301 36008KT P6SM SCT180 BKN250 RMK NXT FCST BY 121900Z